Private Wetterstation Wechselburg
Wetterdaten: Freitag, 09.09.2016
Datum Zeit Temp. +2m Bodentemp. Temp.+5cm Temp. Wind Windchill X Diff Temp. Feuchte +2m Feuchte +5cm Sonnenschein Luftdruck Regen Wind Richtung Richtung Sonnenschein Taupunkt Windchill Windben
09.09.2016 00:00 15,3 C 25,9 C 16,8 C 15,4 C 15,4 C 0,1 C 83 % 88 % 0 % 1011,1 hPa 0,0 l/m 0,0 km/h (0 Bft) W 270 0 min 12,4 C 15,4 C 0,0 km/h (0 Bft)
09.09.2016 00:05 15,2 C 25,9 C 16,7 C 15,3 C 15,3 C 0,1 C 84 % 88 % 0 % 1011,2 hPa 0,0 l/m 0,0 km/h (0 Bft) W 270 0 min 12,5 C 15,3 C 0,0 km/h (0 Bft)
09.09.2016 00:12 15,2 C 25,9 C 16,7 C 15,4 C 15,4 C 0,2 C 84 % 88 % 0 % 1011,2 hPa 0,0 l/m 0,0 km/h (0 Bft) N 0 0 min 12,5 C 15,4 C 0,0 km/h (0 Bft)
09.09.2016 00:20 15,1 C 26,0 C 16,6 C 15,4 C 15,4 C 0,3 C 84 % 89 % 0 % 1011,2 hPa 0,0 l/m 0,0 km/h (0 Bft) O-NO 67 0 min 12,4 C 15,4 C 0,0 km/h (0 Bft)
09.09.2016 00:25 15,1 C 26,0 C 16,5 C 15,3 C 15,3 C 0,2 C 84 % 89 % 0 % 1011,0 hPa 0,0 l/m 0,0 km/h (0 Bft) O-NO 67 0 min 12,4 C 15,3 C 0,0 km/h (0 Bft)
09.09.2016 00:30 15,0 C 26,0 C 16,5 C 15,3 C 15,3 C 0,3 C 84 % 89 % 0 % 1011,0 hPa 0,0 l/m 0,0 km/h (0 Bft) O-NO 67 0 min 12,3 C 15,3 C 0,0 km/h (0 Bft)
09.09.2016 00:35 14,9 C 26,0 C 16,5 C 15,2 C 15,2 C 0,3 C 84 % 89 % 0 % 1011,0 hPa 0,0 l/m 0,0 km/h (0 Bft) O-NO 67 0 min 12,2 C 15,2 C 0,0 km/h (0 Bft)
09.09.2016 00:40 14,8 C 26,0 C 16,5 C 15,1 C 15,1 C 0,3 C 84 % 89 % 0 % 1011,0 hPa 0,0 l/m 0,0 km/h (0 Bft) O-NO 67 0 min 12,1 C 15,1 C 0,0 km/h (0 Bft)
09.09.2016 00:45 14,8 C 26,0 C 16,4 C 15,1 C 15,1 C 0,3 C 84 % 88 % 0 % 1011,1 hPa 0,0 l/m 0,0 km/h (0 Bft) O-NO 67 0 min 12,1 C 15,1 C 0,0 km/h (0 Bft)
09.09.2016 00:50 14,8 C 26,0 C 16,3 C 15,0 C 15,0 C 0,2 C 84 % 88 % 0 % 1011,1 hPa 0,0 l/m 0,0 km/h (0 Bft) O-NO 67 0 min 12,1 C 15,0 C 0,0 km/h (0 Bft)
09.09.2016 00:55 14,6 C 26,0 C 16,3 C 15,1 C 15,1 C 0,5 C 84 % 89 % 0 % 1011,1 hPa 0,0 l/m 0,0 km/h (0 Bft) O-NO 67 0 min 11,9 C 15,1 C 0,0 km/h (0 Bft)
09.09.2016 01:00 14,7 C 26,0 C 16,2 C 15,1 C 15,1 C 0,4 C 84 % 89 % 0 % 1011,1 hPa 0,0 l/m 0,0 km/h (0 Bft) O-NO 67 0 min 12,0 C 15,1 C 0,0 km/h (0 Bft)
09.09.2016 01:05 14,6 C 26,0 C 16,2 C 15,0 C 15,0 C 0,4 C 85 % 89 % 0 % 1011,2 hPa 0,0 l/m 0,0 km/h (0 Bft) O-NO 67 0 min 12,1 C 15,0 C 0,0 km/h (0 Bft)
09.09.2016 01:10 14,6 C 26,0 C 16,3 C 15,0 C 15,0 C 0,4 C 85 % 89 % 0 % 1011,2 hPa 0,0 l/m 0,0 km/h (0 Bft) O-NO 67 0 min 12,1 C 15,0 C 0,0 km/h (0 Bft)
09.09.2016 01:15 14,7 C 26,0 C 16,1 C 15,1 C 15,1 C 0,4 C 85 % 89 % 0 % 1011,2 hPa 0,0 l/m 0,0 km/h (0 Bft) O-NO 67 0 min 12,2 C 15,1 C 0,0 km/h (0 Bft)
09.09.2016 01:20 14,6 C 25,9 C 16,1 C 15,0 C 15,0 C 0,4 C 85 % 89 % 0 % 1011,2 hPa 0,0 l/m 0,0 km/h (0 Bft) O-NO 67 0 min 12,1 C 15,0 C 0,0 km/h (0 Bft)
09.09.2016 01:25 14,5 C 25,9 C 16,0 C 14,9 C 14,9 C 0,4 C 85 % 89 % 0 % 1011,3 hPa 0,0 l/m 0,0 km/h (0 Bft) NW 315 0 min 12,0 C 14,9 C 0,0 km/h (0 Bft)
09.09.2016 01:30 14,4 C 25,9 C 16,0 C 14,9 C 14,9 C 0,5 C 85 % 89 % 0 % 1011,3 hPa 0,0 l/m 0,0 km/h (0 Bft) NW 315 0 min 11,9 C 14,9 C 0,0 km/h (0 Bft)
09.09.2016 01:35 14,4 C 25,9 C 16,0 C 14,7 C 14,7 C 0,3 C 85 % 89 % 0 % 1011,3 hPa 0,0 l/m 0,0 km/h (0 Bft) W 270 0 min 11,9 C 14,7 C 0,0 km/h (0 Bft)
09.09.2016 01:40 14,3 C 25,9 C 15,9 C 14,7 C 14,7 C 0,4 C 85 % 89 % 0 % 1011,3 hPa 0,0 l/m 0,0 km/h (0 Bft) W 270 0 min 11,8 C 14,7 C 0,0 km/h (0 Bft)
09.09.2016 01:45 14,3 C 25,9 C 15,9 C 14,7 C 14,7 C 0,4 C 85 % 89 % 0 % 1011,5 hPa 0,0 l/m 0,0 km/h (0 Bft) W 270 0 min 11,8 C 14,7 C 0,0 km/h (0 Bft)
09.09.2016 01:50 14,3 C 25,9 C 15,9 C 14,7 C 14,7 C 0,4 C 85 % 89 % 0 % 1011,5 hPa 0,0 l/m 0,0 km/h (0 Bft) W 270 0 min 11,8 C 14,7 C 0,0 km/h (0 Bft)
09.09.2016 01:55 14,2 C 25,9 C 15,9 C 14,7 C 14,7 C 0,5 C 85 % 89 % 0 % 1011,5 hPa 0,0 l/m 0,0 km/h (0 Bft) W 270 0 min 11,7 C 14,7 C 0,0 km/h (0 Bft)
09.09.2016 02:00 14,1 C 25,9 C 15,8 C 14,6 C 14,6 C 0,5 C 85 % 89 % 0 % 1011,5 hPa 0,0 l/m 0,0 km/h (0 Bft) W 270 0 min 11,6 C 14,6 C 0,0 km/h (0 Bft)
09.09.2016 02:05 14,1 C 25,9 C 15,7 C 14,5 C 14,5 C 0,4 C 85 % 89 % 0 % 1011,4 hPa 0,0 l/m 0,0 km/h (0 Bft) SW 225 0 min 11,6 C 14,5 C 0,0 km/h (0 Bft)
09.09.2016 02:12 14,1 C 25,9 C 15,6 C 14,7 C 14,7 C 0,6 C 86 % 89 % 0 % 1011,4 hPa 0,0 l/m 0,0 km/h (0 Bft) N 0 0 min 11,8 C 14,7 C 0,0 km/h (0 Bft)
09.09.2016 02:20 14,1 C 25,9 C 15,6 C 14,6 C 14,6 C 0,5 C 86 % 89 % 0 % 1011,4 hPa 0,0 l/m 0,0 km/h (0 Bft) S 180 0 min 11,8 C 14,6 C 0,0 km/h (0 Bft)
09.09.2016 02:25 14,0 C 25,9 C 15,6 C 14,6 C 14,6 C 0,6 C 86 % 89 % 0 % 1011,4 hPa 0,0 l/m 0,0 km/h (0 Bft) SW 225 0 min 11,7 C 14,6 C 0,0 km/h (0 Bft)
09.09.2016 02:30 14,0 C 25,8 C 15,6 C 14,5 C 14,5 C 0,5 C 86 % 89 % 0 % 1011,4 hPa 0,0 l/m 0,0 km/h (0 Bft) W 270 0 min 11,7 C 14,5 C 0,0 km/h (0 Bft)
09.09.2016 02:35 14,0 C 25,9 C 15,7 C 14,5 C 14,5 C 0,5 C 86 % 89 % 0 % 1011,4 hPa 0,0 l/m 0,0 km/h (0 Bft) W 270 0 min 11,7 C 14,5 C 0,0 km/h (0 Bft)
09.09.2016 02:40 14,0 C 25,8 C 15,6 C 14,5 C 14,5 C 0,5 C 86 % 89 % 0 % 1011,4 hPa 0,0 l/m 0,0 km/h (0 Bft) W 270 0 min 11,7 C 14,5 C 0,0 km/h (0 Bft)
09.09.2016 02:45 14,0 C 25,8 C 15,6 C 14,4 C 14,4 C 0,4 C 86 % 90 % 0 % 1011,6 hPa 0,0 l/m 0,0 km/h (0 Bft) W-SW 247 0 min 11,7 C 14,4 C 0,0 km/h (0 Bft)
09.09.2016 02:50 13,9 C 25,8 C 15,5 C 14,4 C 14,4 C 0,5 C 86 % 90 % 0 % 1011,6 hPa 0,0 l/m 0,0 km/h (0 Bft) O-NO 67 0 min 11,6 C 14,4 C 0,0 km/h (0 Bft)
09.09.2016 02:55 14,0 C 25,8 C 15,5 C 14,5 C 14,5 C 0,5 C 87 % 90 % 0 % 1011,6 hPa 0,0 l/m 0,0 km/h (0 Bft) O 90 0 min 11,9 C 14,5 C 0,0 km/h (0 Bft)
09.09.2016 03:00 14,1 C 25,8 C 15,5 C 14,6 C 14,6 C 0,5 C 87 % 90 % 0 % 1011,6 hPa 0,0 l/m 0,0 km/h (0 Bft) O 90 0 min 12,0 C 14,6 C 0,0 km/h (0 Bft)
09.09.2016 03:05 14,3 C 25,8 C 15,5 C 14,7 C 14,7 C 0,4 C 87 % 90 % 0 % 1011,5 hPa 0,0 l/m 0,0 km/h (0 Bft) O-SO 112 0 min 12,2 C 14,7 C 0,0 km/h (0 Bft)
09.09.2016 03:10 14,2 C 25,8 C 15,5 C 14,7 C 14,7 C 0,5 C 87 % 90 % 0 % 1011,5 hPa 0,0 l/m 0,0 km/h (0 Bft) S 180 0 min 12,1 C 14,7 C 0,0 km/h (0 Bft)
09.09.2016 03:15 14,1 C 25,8 C 15,5 C 14,5 C 14,5 C 0,4 C 87 % 90 % 0 % 1011,5 hPa 0,0 l/m 0,0 km/h (0 Bft) W 270 0 min 12,0 C 14,5 C 0,0 km/h (0 Bft)
09.09.2016 03:20 14,0 C 25,8 C 15,5 C 14,4 C 14,4 C 0,4 C 87 % 90 % 0 % 1011,5 hPa 0,0 l/m 0,0 km/h (0 Bft) O-NO 67 0 min 11,9 C 14,4 C 0,0 km/h (0 Bft)
09.09.2016 03:25 13,9 C 25,8 C 15,3 C 14,3 C 14,3 C 0,4 C 87 % 90 % 0 % 1011,7 hPa 0,0 l/m 0,0 km/h (0 Bft) O-NO 67 0 min 11,8 C 14,3 C 0,0 km/h (0 Bft)
09.09.2016 03:30 13,9 C 25,8 C 15,3 C 14,2 C 14,2 C 0,3 C 86 % 90 % 0 % 1011,7 hPa 0,0 l/m 0,0 km/h (0 Bft) W 270 0 min 11,6 C 14,2 C 0,0 km/h (0 Bft)
09.09.2016 03:35 13,7 C 25,8 C 15,2 C 14,0 C 14,0 C 0,3 C 87 % 90 % 0 % 1011,7 hPa 0,0 l/m 0,0 km/h (0 Bft) W-SW 247 0 min 11,6 C 14,0 C 0,0 km/h (0 Bft)
09.09.2016 03:40 13,7 C 25,8 C 15,2 C 14,0 C 14,0 C 0,3 C 86 % 90 % 0 % 1011,7 hPa 0,0 l/m 0,0 km/h (0 Bft) W-SW 247 0 min 11,4 C 14,0 C 0,0 km/h (0 Bft)
09.09.2016 03:45 13,6 C 25,7 C 15,2 C 13,8 C 13,8 C 0,2 C 87 % 90 % 0 % 1011,8 hPa 0,0 l/m 0,0 km/h (0 Bft) S-SW 202 0 min 11,5 C 13,8 C 0,0 km/h (0 Bft)
09.09.2016 03:50 13,5 C 25,7 C 15,2 C 13,8 C 13,8 C 0,3 C 87 % 90 % 0 % 1011,8 hPa 0,0 l/m 0,0 km/h (0 Bft) S-SW 202 0 min 11,4 C 13,8 C 0,0 km/h (0 Bft)
09.09.2016 03:55 13,5 C 25,7 C 15,1 C 13,9 C 13,9 C 0,4 C 87 % 90 % 0 % 1011,8 hPa 0,0 l/m 0,0 km/h (0 Bft) O-NO 67 0 min 11,4 C 13,9 C 0,0 km/h (0 Bft)
09.09.2016 04:00 13,7 C 25,7 C 15,1 C 14,0 C 14,0 C 0,3 C 87 % 90 % 0 % 1011,8 hPa 0,0 l/m 0,0 km/h (0 Bft) O-NO 67 0 min 11,6 C 14,0 C 0,0 km/h (0 Bft)
09.09.2016 04:05 13,7 C 25,7 C 15,0 C 14,1 C 14,1 C 0,4 C 87 % 90 % 0 % 1011,9 hPa 0,0 l/m 0,0 km/h (0 Bft) O-NO 67 0 min 11,6 C 14,1 C 0,0 km/h (0 Bft)
09.09.2016 04:12 13,8 C 25,7 C 15,2 C 14,2 C 14,2 C 0,4 C 88 % 90 % 0 % 1011,9 hPa 0,0 l/m 0,0 km/h (0 Bft) N 0 0 min 11,8 C 14,2 C 0,0 km/h (0 Bft)
09.09.2016 04:20 13,9 C 25,7 C 15,1 C 14,2 C 14,2 C 0,3 C 88 % 90 % 0 % 1011,9 hPa 0,0 l/m 0,0 km/h (0 Bft) O-NO 67 0 min 11,9 C 14,2 C 0,0 km/h (0 Bft)
09.09.2016 04:25 13,8 C 25,7 C 15,1 C 14,2 C 14,2 C 0,4 C 88 % 90 % 0 % 1011,9 hPa 0,0 l/m 0,0 km/h (0 Bft) NO 45 0 min 11,8 C 14,2 C 0,0 km/h (0 Bft)
09.09.2016 04:30 13,7 C 25,7 C 15,1 C 14,2 C 14,2 C 0,5 C 88 % 90 % 0 % 1011,9 hPa 0,0 l/m 0,0 km/h (0 Bft) O-NO 67 0 min 11,7 C 14,2 C 0,0 km/h (0 Bft)
09.09.2016 04:35 13,7 C 25,7 C 15,1 C 14,1 C 14,1 C 0,4 C 88 % 90 % 0 % 1011,9 hPa 0,0 l/m 0,0 km/h (0 Bft) S-SW 202 0 min 11,7 C 14,1 C 0,0 km/h (0 Bft)
09.09.2016 04:40 13,6 C 25,7 C 15,0 C 14,0 C 14,0 C 0,4 C 88 % 90 % 0 % 1011,9 hPa 0,0 l/m 0,0 km/h (0 Bft) O-NO 67 0 min 11,6 C 14,0 C 0,0 km/h (0 Bft)
09.09.2016 04:45 13,7 C 25,6 C 15,1 C 14,0 C 14,0 C 0,3 C 88 % 90 % 0 % 1012,1 hPa 0,0 l/m 0,0 km/h (0 Bft) W-SW 247 0 min 11,7 C 14,0 C 0,0 km/h (0 Bft)
09.09.2016 04:50 13,6 C 25,6 C 15,0 C 14,0 C 14,0 C 0,4 C 88 % 90 % 0 % 1012,1 hPa 0,0 l/m 0,0 km/h (0 Bft) SO 135 0 min 11,6 C 14,0 C 0,0 km/h (0 Bft)
09.09.2016 04:55 13,6 C 25,6 C 14,9 C 13,9 C 13,9 C 0,3 C 88 % 90 % 0 % 1012,1 hPa 0,0 l/m 0,0 km/h (0 Bft) O-NO 67 0 min 11,6 C 13,9 C 0,0 km/h (0 Bft)
09.09.2016 05:00 13,5 C 25,6 C 14,9 C 13,9 C 13,9 C 0,4 C 88 % 90 % 0 % 1012,1 hPa 0,0 l/m 0,0 km/h (0 Bft) S-SO 157 0 min 11,6 C 13,9 C 0,0 km/h (0 Bft)
09.09.2016 05:05 13,5 C 25,6 C 14,8 C 13,8 C 13,8 C 0,3 C 88 % 90 % 0 % 1012,2 hPa 0,0 l/m 0,0 km/h (0 Bft) W-SW 247 0 min 11,6 C 13,8 C 0,0 km/h (0 Bft)
09.09.2016 05:10 13,5 C 25,6 C 14,8 C 13,7 C 13,7 C 0,2 C 88 % 90 % 0 % 1012,2 hPa 0,0 l/m 0,0 km/h (0 Bft) W-SW 247 0 min 11,6 C 13,7 C 0,0 km/h (0 Bft)
09.09.2016 05:15 13,3 C 25,6 C 14,8 C 13,7 C 13,7 C 0,4 C 88 % 90 % 0 % 1012,2 hPa 0,0 l/m 0,0 km/h (0 Bft) W-SW 247 0 min 11,4 C 13,7 C 0,0 km/h (0 Bft)
09.09.2016 05:20 13,2 C 25,6 C 14,7 C 13,6 C 13,6 C 0,4 C 88 % 90 % 0 % 1012,2 hPa 0,0 l/m 0,0 km/h (0 Bft) W-SW 247 0 min 11,3 C 13,6 C 0,0 km/h (0 Bft)
09.09.2016 05:25 13,2 C 25,6 C 14,7 C 13,6 C 13,6 C 0,4 C 88 % 90 % 0 % 1012,3 hPa 0,0 l/m 0,0 km/h (0 Bft) W-SW 247 0 min 11,3 C 13,6 C 0,0 km/h (0 Bft)
09.09.2016 05:30 13,2 C 25,6 C 14,7 C 13,7 C 13,7 C 0,5 C 88 % 90 % 0 % 1012,3 hPa 0,0 l/m 0,0 km/h (0 Bft) W-SW 247 0 min 11,3 C 13,7 C 0,0 km/h (0 Bft)
09.09.2016 05:35 13,2 C 25,6 C 14,6 C 13,6 C 13,6 C 0,4 C 88 % 90 % 0 % 1012,3 hPa 0,0 l/m 0,0 km/h (0 Bft) SW 225 0 min 11,3 C 13,6 C 0,0 km/h (0 Bft)
09.09.2016 05:40 13,2 C 25,6 C 14,7 C 13,6 C 13,6 C 0,4 C 88 % 90 % 0 % 1012,3 hPa 0,0 l/m 0,0 km/h (0 Bft) O 90 0 min 11,3 C 13,6 C 0,0 km/h (0 Bft)
09.09.2016 05:45 13,3 C 25,5 C 14,7 C 13,7 C 13,7 C 0,4 C 88 % 90 % 0 % 1012,4 hPa 0,0 l/m 0,0 km/h (0 Bft) O-NO 67 0 min 11,4 C 13,7 C 0,0 km/h (0 Bft)
09.09.2016 05:50 13,2 C 25,5 C 14,7 C 13,7 C 13,7 C 0,5 C 88 % 90 % 0 % 1012,4 hPa 0,0 l/m 0,0 km/h (0 Bft) O-NO 67 0 min 11,3 C 13,7 C 0,0 km/h (0 Bft)
09.09.2016 05:55 13,2 C 25,5 C 14,7 C 13,6 C 13,6 C 0,4 C 88 % 90 % 0 % 1012,4 hPa 0,0 l/m 0,0 km/h (0 Bft) O-NO 67 0 min 11,3 C 13,6 C 0,0 km/h (0 Bft)
09.09.2016 06:00 13,1 C 25,5 C 14,7 C 13,5 C 13,5 C 0,4 C 88 % 90 % 0 % 1012,4 hPa 0,0 l/m 0,0 km/h (0 Bft) W-SW 247 0 min 11,2 C 13,5 C 0,0 km/h (0 Bft)
09.09.2016 06:05 13,0 C 25,5 C 14,5 C 13,4 C 13,4 C 0,4 C 88 % 89 % 0 % 1012,8 hPa 0,0 l/m 0,0 km/h (0 Bft) S 180 0 min 11,1 C 13,4 C 0,0 km/h (0 Bft)
09.09.2016 06:12 13,2 C 25,6 C 14,5 C 13,7 C 13,7 C 0,5 C 88 % 89 % 0 % 1012,8 hPa 0,0 l/m 0,0 km/h (0 Bft) N 0 0 min 11,3 C 13,7 C 0,0 km/h (0 Bft)
09.09.2016 06:20 13,3 C 25,6 C 14,5 C 13,7 C 13,7 C 0,4 C 88 % 89 % 0 % 1012,8 hPa 0,0 l/m 0,0 km/h (0 Bft) SO 135 0 min 11,4 C 13,7 C 0,0 km/h (0 Bft)
09.09.2016 06:25 13,2 C 25,6 C 14,5 C 13,7 C 13,7 C 0,5 C 88 % 89 % 0 % 1013,0 hPa 0,0 l/m 0,0 km/h (0 Bft) N-NW 337 0 min 11,3 C 13,7 C 0,0 km/h (0 Bft)
09.09.2016 06:30 13,2 C 25,6 C 14,6 C 13,7 C 13,7 C 0,5 C 89 % 90 % 0 % 1013,0 hPa 0,0 l/m 0,0 km/h (0 Bft) O-NO 67 0 min 11,4 C 13,7 C 0,0 km/h (0 Bft)
09.09.2016 06:35 13,3 C 25,6 C 14,5 C 13,8 C 13,8 C 0,5 C 89 % 89 % 0 % 1013,0 hPa 0,0 l/m 0,0 km/h (0 Bft) O 90 0 min 11,5 C 13,8 C 0,0 km/h (0 Bft)
09.09.2016 06:40 13,2 C 25,6 C 14,7 C 13,8 C 13,8 C 0,6 C 88 % 90 % 0 % 1013,0 hPa 0,0 l/m 0,0 km/h (0 Bft) SW 225 0 min 11,3 C 13,8 C 0,0 km/h (0 Bft)
09.09.2016 06:45 13,2 C 25,6 C 14,5 C 13,6 C 13,6 C 0,4 C 88 % 89 % 0 % 1012,9 hPa 0,0 l/m 0,0 km/h (0 Bft) O-NO 67 0 min 11,3 C 13,6 C 0,0 km/h (0 Bft)
09.09.2016 06:50 13,3 C 25,6 C 14,5 C 13,7 C 13,7 C 0,4 C 89 % 89 % 11 % 1012,9 hPa 0,0 l/m 0,0 km/h (0 Bft) O-NO 67 5 min 11,5 C 13,7 C 0,0 km/h (0 Bft)
09.09.2016 06:55 13,2 C 25,5 C 14,7 C 13,8 C 13,8 C 0,6 C 89 % 90 % 16 % 1012,9 hPa 0,0 l/m 0,0 km/h (0 Bft) O-NO 67 5 min 11,4 C 13,8 C 0,0 km/h (0 Bft)
09.09.2016 07:00 13,2 C 25,5 C 14,5 C 13,8 C 13,8 C 0,6 C 89 % 89 % 16 % 1012,9 hPa 0,0 l/m 0,0 km/h (0 Bft) O-NO 67 5 min 11,4 C 13,8 C 0,0 km/h (0 Bft)
09.09.2016 07:05 13,3 C 25,5 C 14,5 C 13,7 C 13,7 C 0,4 C 89 % 89 % 11 % 1013,2 hPa 0,0 l/m 0,0 km/h (0 Bft) O-NO 67 0 min 11,5 C 13,7 C 0,0 km/h (0 Bft)
09.09.2016 07:10 13,3 C 25,5 C 14,6 C 14,0 C 14,0 C 0,7 C 89 % 90 % 18 % 1013,2 hPa 0,0 l/m 0,0 km/h (0 Bft) O-NO 67 0 min 11,5 C 14,0 C 0,0 km/h (0 Bft)
09.09.2016 07:15 13,3 C 25,5 C 14,7 C 14,6 C 14,6 C 1,3 C 89 % 90 % 34 % 1013,2 hPa 0,0 l/m 0,0 km/h (0 Bft) O-NO 67 5 min 11,5 C 14,6 C 0,0 km/h (0 Bft)
09.09.2016 07:20 13,6 C 25,5 C 14,8 C 15,0 C 15,0 C 1,4 C 89 % 89 % 37 % 1013,2 hPa 0,0 l/m 0,0 km/h (0 Bft) O-NO 67 5 min 11,8 C 15,0 C 0,0 km/h (0 Bft)
09.09.2016 07:25 13,9 C 25,5 C 15,1 C 15,5 C 15,5 C 1,6 C 90 % 89 % 42 % 1013,3 hPa 0,0 l/m 0,0 km/h (0 Bft) O-NO 67 5 min 12,3 C 15,5 C 0,0 km/h (0 Bft)
09.09.2016 07:30 14,0 C 25,5 C 15,1 C 15,8 C 15,8 C 1,8 C 90 % 89 % 47 % 1013,3 hPa 0,0 l/m 0,0 km/h (0 Bft) O-NO 67 5 min 12,4 C 15,8 C 0,0 km/h (0 Bft)
09.09.2016 07:35 14,1 C 25,4 C 15,1 C 15,7 C 15,7 C 1,6 C 90 % 89 % 42 % 1013,3 hPa 0,0 l/m 0,0 km/h (0 Bft) O-NO 67 5 min 12,5 C 15,7 C 0,0 km/h (0 Bft)
09.09.2016 07:40 14,3 C 25,4 C 15,3 C 15,5 C 15,5 C 1,2 C 90 % 89 % 32 % 1013,3 hPa 0,0 l/m 0,0 km/h (0 Bft) O-NO 67 0 min 12,7 C 15,5 C 0,0 km/h (0 Bft)
09.09.2016 07:45 14,3 C 25,4 C 15,5 C 15,4 C 15,4 C 1,1 C 90 % 89 % 29 % 1013,3 hPa 0,0 l/m 0,0 km/h (0 Bft) O-NO 67 0 min 12,7 C 15,4 C 0,0 km/h (0 Bft)
09.09.2016 07:50 14,4 C 25,4 C 15,5 C 15,3 C 15,3 C 0,9 C 90 % 89 % 24 % 1013,3 hPa 0,0 l/m 0,0 km/h (0 Bft) O-NO 67 0 min 12,8 C 15,3 C 0,0 km/h (0 Bft)
09.09.2016 07:55 14,5 C 25,4 C 15,6 C 15,4 C 15,4 C 0,9 C 90 % 89 % 24 % 1013,3 hPa 0,0 l/m 0,0 km/h (0 Bft) O 90 0 min 12,9 C 15,4 C 0,0 km/h (0 Bft)
09.09.2016 08:00 14,6 C 25,4 C 15,8 C 15,6 C 15,6 C 1,0 C 90 % 89 % 26 % 1013,3 hPa 0,0 l/m 0,0 km/h (0 Bft) O-NO 67 0 min 13,0 C 15,6 C 0,0 km/h (0 Bft)
09.09.2016 08:05 14,8 C 25,4 C 15,9 C 15,9 C 15,9 C 1,1 C 90 % 88 % 29 % 1013,8 hPa 0,0 l/m 0,0 km/h (0 Bft) O-NO 67 0 min 13,2 C 15,9 C 0,0 km/h (0 Bft)
09.09.2016 08:12 15,3 C 25,4 C 16,3 C 17,1 C 17,1 C 1,8 C 91 % 88 % 47 % 1013,8 hPa 0,0 l/m 0,0 km/h (0 Bft) N 0 0 min 13,8 C 17,1 C 0,0 km/h (0 Bft)
09.09.2016 08:20 15,4 C 25,3 C 16,4 C 18,0 C 18,0 C 2,6 C 91 % 88 % 68 % 1013,8 hPa 0,0 l/m 0,0 km/h (0 Bft) W-SW 247 0 min 13,9 C 18,0 C 0,0 km/h (0 Bft)
09.09.2016 08:25 15,7 C 25,3 C 16,7 C 19,7 C 19,7 C 4,0 C 91 % 89 % 100 % 1014,1 hPa 0,0 l/m 0,0 km/h (0 Bft) SW 225 5 min 14,2 C 19,7 C 0,0 km/h (0 Bft)
09.09.2016 08:30 15,9 C 25,3 C 16,8 C 20,4 C 20,4 C 4,5 C 91 % 89 % 100 % 1014,1 hPa 0,0 l/m 0,0 km/h (0 Bft) SW 225 5 min 14,4 C 20,4 C 0,0 km/h (0 Bft)
09.09.2016 08:35 16,1 C 25,3 C 16,9 C 20,2 C 20,2 C 4,1 C 91 % 89 % 100 % 1014,1 hPa 0,0 l/m 0,0 km/h (0 Bft) S 180 5 min 14,6 C 20,2 C 0,0 km/h (0 Bft)
09.09.2016 08:40 16,3 C 25,2 C 16,9 C 20,5 C 20,5 C 4,2 C 91 % 89 % 100 % 1014,1 hPa 0,0 l/m 0,0 km/h (0 Bft) S-SW 202 5 min 14,8 C 20,5 C 0,0 km/h (0 Bft)
09.09.2016 08:45 16,4 C 25,2 C 17,2 C 20,6 C 20,6 C 4,2 C 91 % 89 % 100 % 1013,9 hPa 0,0 l/m 0,0 km/h (0 Bft) W-SW 247 5 min 14,9 C 20,6 C 0,0 km/h (0 Bft)
09.09.2016 08:50 16,7 C 25,3 C 17,2 C 21,1 C 21,1 C 4,4 C 92 % 89 % 100 % 1013,9 hPa 0,0 l/m 0,0 km/h (0 Bft) S-SW 202 5 min 15,4 C 21,1 C 0,0 km/h (0 Bft)
09.09.2016 08:55 16,9 C 25,2 C 17,7 C 21,9 C 21,9 C 5,0 C 92 % 89 % 100 % 1013,9 hPa 0,0 l/m 0,0 km/h (0 Bft) S-SO 157 5 min 15,6 C 21,9 C 0,0 km/h (0 Bft)
09.09.2016 09:00 17,1 C 25,2 C 17,9 C 22,1 C 22,1 C 5,0 C 92 % 89 % 100 % 1013,9 hPa 0,0 l/m 0,0 km/h (0 Bft) W-SW 247 5 min 15,8 C 22,1 C 0,0 km/h (0 Bft)
09.09.2016 09:05 17,5 C 25,2 C 18,1 C 22,3 C 22,3 C 4,8 C 92 % 89 % 100 % 1014,3 hPa 0,0 l/m 0,0 km/h (0 Bft) W-SW 247 5 min 16,2 C 22,3 C 0,0 km/h (0 Bft)
09.09.2016 09:10 17,6 C 25,1 C 18,3 C 22,4 C 22,4 C 4,8 C 92 % 89 % 100 % 1014,3 hPa 0,0 l/m 0,0 km/h (0 Bft) W-SW 247 5 min 16,3 C 22,4 C 0,0 km/h (0 Bft)
09.09.2016 09:15 17,7 C 25,1 C 18,4 C 22,2 C 22,2 C 4,5 C 92 % 89 % 100 % 1014,3 hPa 0,0 l/m 0,0 km/h (0 Bft) S-SW 202 5 min 16,4 C 22,2 C 1,8 km/h (1 Bft)
09.09.2016 09:20 17,9 C 25,0 C 18,5 C 22,2 C 22,2 C 4,3 C 92 % 89 % 100 % 1014,3 hPa 0,0 l/m 0,2 km/h (0 Bft) W-SW 247 5 min 16,6 C 22,2 C 0,0 km/h (0 Bft)
09.09.2016 09:25 18,1 C 25,0 C 18,6 C 22,2 C 22,2 C 4,1 C 92 % 89 % 100 % 1014,6 hPa 0,0 l/m 0,2 km/h (0 Bft) W-SW 247 5 min 16,8 C 22,2 C 0,0 km/h (0 Bft)
09.09.2016 09:30 18,3 C 25,0 C 18,8 C 22,4 C 22,4 C 4,1 C 92 % 89 % 100 % 1014,6 hPa 0,0 l/m 0,2 km/h (0 Bft) W 270 5 min 17,0 C 22,4 C 2,1 km/h (1 Bft)
09.09.2016 09:35 18,5 C 25,0 C 18,9 C 22,6 C 22,6 C 4,1 C 91 % 89 % 100 % 1014,6 hPa 0,0 l/m 0,3 km/h (0 Bft) S 180 5 min 17,0 C 22,6 C 2,7 km/h (1 Bft)
09.09.2016 09:40 18,7 C 25,0 C 19,1 C 22,6 C 22,6 C 3,9 C 91 % 89 % 100 % 1014,6 hPa 0,0 l/m 0,3 km/h (0 Bft) W-SW 247 5 min 17,2 C 22,6 C 0,0 km/h (0 Bft)
09.09.2016 09:45 18,9 C 25,0 C 19,2 C 22,6 C 22,6 C 3,7 C 91 % 89 % 97 % 1014,4 hPa 0,0 l/m 0,6 km/h (0 Bft) W-SW 247 5 min 17,4 C 22,6 C 5,1 km/h (1 Bft)
09.09.2016 09:50 19,0 C 24,8 C 19,3 C 22,8 C 22,8 C 3,8 C 90 % 89 % 100 % 1014,4 hPa 0,0 l/m 0,6 km/h (0 Bft) W-SW 247 5 min 17,3 C 22,8 C 2,1 km/h (1 Bft)
09.09.2016 09:55 19,2 C 24,8 C 19,5 C 23,1 C 23,1 C 3,9 C 90 % 89 % 100 % 1014,4 hPa 0,0 l/m 0,0 km/h (0 Bft) W-SW 247 5 min 17,5 C 23,1 C 0,0 km/h (0 Bft)
09.09.2016 10:00 19,3 C 24,8 C 19,6 C 23,4 C 23,4 C 4,1 C 89 % 89 % 100 % 1014,4 hPa 0,0 l/m 0,3 km/h (0 Bft) SW 225 5 min 17,4 C 23,4 C 0,0 km/h (0 Bft)
09.09.2016 10:05 19,4 C 24,8 C 19,9 C 24,0 C 24,0 C 4,6 C 88 % 89 % 100 % 1015,0 hPa 0,0 l/m 0,3 km/h (0 Bft) NO 45 5 min 17,4 C 24,0 C 1,9 km/h (1 Bft)
09.09.2016 10:12 19,7 C 24,8 C 20,0 C 24,3 C 24,3 C 4,6 C 85 % 88 % 100 % 1015,0 hPa 0,0 l/m 0,8 km/h (0 Bft) N 0 7 min 17,1 C 24,3 C 2,6 km/h (1 Bft)
09.09.2016 10:20 19,6 C 24,8 C 20,0 C 24,1 C 24,1 C 4,5 C 84 % 87 % 100 % 1015,0 hPa 0,0 l/m 0,8 km/h (0 Bft) W 270 8 min 16,8 C 24,1 C 1,8 km/h (1 Bft)
09.09.2016 10:25 19,9 C 24,8 C 20,1 C 23,9 C 23,9 C 4,0 C 82 % 87 % 100 % 1014,9 hPa 0,0 l/m 0,5 km/h (0 Bft) SW 225 5 min 16,7 C 23,9 C 0,0 km/h (0 Bft)
09.09.2016 10:30 20,0 C 24,8 C 20,3 C 24,0 C 24,0 C 4,0 C 81 % 87 % 100 % 1014,9 hPa 0,0 l/m 0,3 km/h (0 Bft) W 270 5 min 16,6 C 24,0 C 2,7 km/h (1 Bft)
09.09.2016 10:35 20,3 C 24,8 C 20,4 C 24,4 C 24,4 C 4,1 C 81 % 86 % 100 % 1014,9 hPa 0,0 l/m 0,6 km/h (0 Bft) NW 315 5 min 16,9 C 24,4 C 0,0 km/h (0 Bft)
09.09.2016 10:40 20,7 C 24,8 C 20,4 C 24,7 C 24,7 C 4,0 C 80 % 86 % 100 % 1014,9 hPa 0,0 l/m 1,0 km/h (0 Bft) W 270 5 min 17,1 C 24,7 C 1,6 km/h (1 Bft)
09.09.2016 10:45 21,1 C 24,8 C 20,6 C 24,8 C 24,8 C 3,7 C 78 % 85 % 97 % 1014,9 hPa 0,0 l/m 1,1 km/h (1 Bft) SW 225 5 min 17,1 C 24,8 C 0,0 km/h (0 Bft)
09.09.2016 10:50 21,2 C 24,8 C 20,8 C 25,0 C 25,0 C 3,8 C 78 % 85 % 100 % 1014,9 hPa 0,0 l/m 1,3 km/h (1 Bft) W-SW 247 5 min 17,2 C 25,0 C 2,1 km/h (1 Bft)
09.09.2016 10:55 21,5 C 24,8 C 20,8 C 24,9 C 24,9 C 3,4 C 77 % 84 % 89 % 1014,9 hPa 0,0 l/m 1,1 km/h (1 Bft) SW 225 5 min 17,3 C 24,9 C 0,0 km/h (0 Bft)
09.09.2016 11:00 21,6 C 24,8 C 20,8 C 24,8 C 24,8 C 3,2 C 76 % 84 % 84 % 1014,9 hPa 0,0 l/m 1,0 km/h (0 Bft) N-NW 337 0 min 17,2 C 24,8 C 1,6 km/h (1 Bft)
09.09.2016 11:05 21,8 C 24,9 C 20,8 C 24,6 C 24,6 C 2,8 C 76 % 84 % 74 % 1016,1 hPa 0,0 l/m 0,6 km/h (0 Bft) S 180 0 min 17,4 C 24,6 C 0,0 km/h (0 Bft)
09.09.2016 11:10 21,8 C 24,9 C 20,8 C 24,6 C 24,6 C 2,8 C 76 % 84 % 74 % 1016,1 hPa 0,0 l/m 0,8 km/h (0 Bft) W-SW 247 0 min 17,4 C 24,6 C 0,0 km/h (0 Bft)
09.09.2016 11:15 21,9 C 24,9 C 21,0 C 24,8 C 24,8 C 2,9 C 76 % 83 % 76 % 1016,1 hPa 0,0 l/m 0,8 km/h (0 Bft) W 270 0 min 17,5 C 24,8 C 0,0 km/h (0 Bft)
09.09.2016 11:20 22,0 C 24,9 C 21,1 C 24,9 C 24,9 C 2,9 C 75 % 83 % 76 % 1016,1 hPa 0,0 l/m 0,5 km/h (0 Bft) W 270 0 min 17,4 C 24,9 C 0,0 km/h (0 Bft)
09.09.2016 11:25 22,2 C 24,9 C 21,1 C 25,0 C 25,0 C 2,8 C 74 % 83 % 74 % 1015,5 hPa 0,0 l/m 0,3 km/h (0 Bft) SW 225 0 min 17,3 C 25,0 C 1,6 km/h (1 Bft)
09.09.2016 11:30 22,4 C 24,9 C 21,1 C 25,1 C 25,1 C 2,7 C 74 % 83 % 71 % 1015,5 hPa 0,0 l/m 0,5 km/h (0 Bft) N-NW 337 0 min 17,5 C 25,1 C 1,6 km/h (1 Bft)
09.09.2016 11:35 22,5 C 24,9 C 21,6 C 25,4 C 25,4 C 2,9 C 74 % 83 % 76 % 1015,5 hPa 0,0 l/m 0,5 km/h (0 Bft) W-SW 247 0 min 17,6 C 25,4 C 3,1 km/h (1 Bft)
09.09.2016 11:40 22,6 C 24,8 C 22,0 C 25,8 C 25,8 C 3,2 C 74 % 82 % 84 % 1015,5 hPa 0,0 l/m 1,0 km/h (0 Bft) NW 315 0 min 17,7 C 25,8 C 2,6 km/h (1 Bft)
09.09.2016 11:45 22,9 C 24,8 C 22,2 C 26,1 C 26,1 C 3,2 C 73 % 80 % 84 % 1015,0 hPa 0,0 l/m 1,1 km/h (1 Bft) W-NW 292 0 min 17,8 C 26,1 C 6,1 km/h (2 Bft)
09.09.2016 11:50 23,0 C 24,8 C 22,2 C 25,9 C 25,9 C 2,9 C 72 % 79 % 76 % 1015,0 hPa 0,0 l/m 1,0 km/h (0 Bft) N-NW 337 0 min 17,7 C 25,9 C 0,0 km/h (0 Bft)
09.09.2016 11:55 23,0 C 24,8 C 22,4 C 25,5 C 25,5 C 2,5 C 72 % 79 % 66 % 1015,0 hPa 0,0 l/m 0,5 km/h (0 Bft) W-SW 247 0 min 17,7 C 25,5 C 0,0 km/h (0 Bft)
09.09.2016 12:00 23,1 C 24,8 C 22,7 C 25,5 C 25,5 C 2,4 C 72 % 79 % 63 % 1015,0 hPa 0,0 l/m 0,5 km/h (0 Bft) S-SW 202 0 min 17,8 C 25,5 C 4,8 km/h (1 Bft)
09.09.2016 12:05 23,1 C 25,0 C 22,7 C 25,4 C 25,4 C 2,3 C 71 % 78 % 61 % 1015,2 hPa 0,0 l/m 1,1 km/h (1 Bft) SO 135 0 min 17,5 C 25,4 C 0,0 km/h (0 Bft)
09.09.2016 12:12 23,3 C 25,0 C 22,8 C 25,7 C 25,7 C 2,4 C 71 % 78 % 63 % 1015,2 hPa 0,0 l/m 0,5 km/h (0 Bft) N 0 0 min 17,7 C 25,7 C 2,4 km/h (1 Bft)
09.09.2016 12:20 23,4 C 25,0 C 22,9 C 26,8 C 26,8 C 3,4 C 71 % 78 % 89 % 1015,2 hPa 0,0 l/m 1,0 km/h (0 Bft) O 90 8 min 17,8 C 26,8 C 2,9 km/h (1 Bft)
09.09.2016 12:25 23,7 C 25,0 C 23,5 C 28,5 C 28,5 C 4,8 C 70 % 76 % 100 % 1015,0 hPa 0,0 l/m 1,3 km/h (1 Bft) SW 225 5 min 17,9 C 28,5 C 2,1 km/h (1 Bft)
09.09.2016 12:30 23,9 C 25,0 C 23,5 C 29,0 C 29,0 C 5,1 C 70 % 75 % 100 % 1015,0 hPa 0,0 l/m 1,4 km/h (1 Bft) N-NW 337 5 min 18,1 C 29,0 C 3,7 km/h (1 Bft)
09.09.2016 12:35 24,0 C 25,0 C 23,4 C 29,6 C 29,6 C 5,6 C 69 % 74 % 100 % 1015,0 hPa 0,0 l/m 2,1 km/h (1 Bft) NW 315 5 min 18,0 C 29,6 C 9,0 km/h (2 Bft)
09.09.2016 12:40 24,2 C 24,9 C 23,3 C 29,9 C 29,9 C 5,7 C 68 % 72 % 100 % 1015,0 hPa 0,0 l/m 1,6 km/h (1 Bft) S 180 5 min 17,9 C 29,9 C 0,0 km/h (0 Bft)
09.09.2016 12:45 24,5 C 24,9 C 23,4 C 30,4 C 30,4 C 5,9 C 67 % 73 % 100 % 1014,9 hPa 0,0 l/m 1,3 km/h (1 Bft) N-NW 337 5 min 18,0 C 30,4 C 1,9 km/h (1 Bft)
09.09.2016 12:50 24,7 C 24,9 C 23,4 C 30,6 C 30,6 C 5,9 C 67 % 72 % 100 % 1014,9 hPa 0,0 l/m 1,4 km/h (1 Bft) NW 315 5 min 18,1 C 30,6 C 5,6 km/h (1 Bft)
09.09.2016 12:55 24,9 C 24,9 C 23,5 C 30,4 C 30,4 C 5,5 C 65 % 71 % 100 % 1014,9 hPa 0,0 l/m 2,7 km/h (1 Bft) W-SW 247 5 min 17,9 C 30,4 C 9,2 km/h (2 Bft)
09.09.2016 13:00 25,0 C 24,9 C 23,5 C 30,4 C 30,4 C 5,4 C 64 % 71 % 100 % 1014,9 hPa 0,0 l/m 3,1 km/h (1 Bft) NW 315 5 min 17,7 C 30,4 C 4,0 km/h (1 Bft)
09.09.2016 13:05 25,1 C 25,0 C 23,6 C 30,3 C 30,3 C 5,2 C 64 % 70 % 100 % 1014,9 hPa 0,0 l/m 2,4 km/h (1 Bft) O-SO 112 5 min 17,8 C 30,3 C 2,3 km/h (1 Bft)
09.09.2016 13:10 25,1 C 25,0 C 23,6 C 30,5 C 30,5 C 5,4 C 63 % 71 % 100 % 1014,9 hPa 0,0 l/m 2,1 km/h (1 Bft) O-NO 67 5 min 17,5 C 30,5 C 3,1 km/h (1 Bft)
09.09.2016 13:15 25,1 C 25,0 C 23,8 C 30,6 C 30,6 C 5,5 C 63 % 69 % 100 % 1014,9 hPa 0,0 l/m 1,6 km/h (1 Bft) SO 135 5 min 17,5 C 30,6 C 4,2 km/h (1 Bft)
09.09.2016 13:20 25,2 C 25,0 C 23,9 C 30,9 C 30,9 C 5,7 C 62 % 69 % 100 % 1014,9 hPa 0,0 l/m 1,6 km/h (1 Bft) O-NO 67 5 min 17,4 C 30,9 C 0,0 km/h (0 Bft)
09.09.2016 13:25 25,2 C 25,0 C 24,0 C 31,2 C 31,2 C 6,0 C 62 % 70 % 100 % 1015,1 hPa 0,0 l/m 1,4 km/h (1 Bft) W-SW 247 5 min 17,4 C 31,2 C 1,6 km/h (1 Bft)
09.09.2016 13:30 25,5 C 25,0 C 24,0 C 31,4 C 31,4 C 5,9 C 61 % 67 % 100 % 1015,1 hPa 0,0 l/m 1,3 km/h (1 Bft) N-NW 337 5 min 17,4 C 31,4 C 2,6 km/h (1 Bft)
09.09.2016 13:35 25,6 C 25,0 C 24,3 C 31,3 C 31,3 C 5,7 C 59 % 67 % 100 % 1015,1 hPa 0,0 l/m 2,6 km/h (1 Bft) S 180 5 min 17,0 C 31,3 C 3,5 km/h (1 Bft)
09.09.2016 13:40 25,6 C 25,0 C 24,4 C 31,1 C 31,1 C 5,5 C 59 % 66 % 100 % 1015,1 hPa 0,0 l/m 2,6 km/h (1 Bft) O-NO 67 5 min 17,0 C 31,1 C 0,0 km/h (0 Bft)
09.09.2016 13:45 25,9 C 25,0 C 24,7 C 31,6 C 31,6 C 5,7 C 60 % 66 % 100 % 1015,1 hPa 0,0 l/m 1,6 km/h (1 Bft) SW 225 5 min 17,5 C 31,6 C 2,4 km/h (1 Bft)
09.09.2016 13:50 26,1 C 25,1 C 24,7 C 32,0 C 32,0 C 5,9 C 59 % 66 % 100 % 1015,1 hPa 0,0 l/m 1,0 km/h (0 Bft) S 180 5 min 17,4 C 32,0 C 3,2 km/h (1 Bft)
09.09.2016 13:55 26,3 C 25,1 C 24,7 C 31,8 C 31,8 C 5,5 C 58 % 66 % 100 % 1015,1 hPa 0,0 l/m 1,6 km/h (1 Bft) NW 315 5 min 17,4 C 31,8 C 5,0 km/h (1 Bft)
09.09.2016 14:00 26,3 C 25,1 C 24,8 C 31,9 C 31,9 C 5,6 C 57 % 64 % 100 % 1015,1 hPa 0,0 l/m 1,8 km/h (1 Bft) SO 135 5 min 17,1 C 31,9 C 0,0 km/h (0 Bft)
09.09.2016 14:05 26,5 C 25,1 C 24,8 C 32,4 C 32,4 C 5,9 C 58 % 66 % 100 % 1015,2 hPa 0,0 l/m 1,1 km/h (1 Bft) SW 225 5 min 17,5 C 32,4 C 2,9 km/h (1 Bft)
09.09.2016 14:12 26,8 C 25,1 C 24,8 C 32,4 C 32,4 C 5,6 C 57 % 66 % 100 % 1015,2 hPa 0,0 l/m 1,4 km/h (1 Bft) N 0 7 min 17,6 C 32,4 C 1,9 km/h (1 Bft)
09.09.2016 14:20 26,9 C 25,1 C 24,9 C 32,2 C 32,2 C 5,3 C 57 % 67 % 100 % 1015,2 hPa 0,0 l/m 1,8 km/h (1 Bft) SW 225 8 min 17,6 C 32,2 C 3,1 km/h (1 Bft)
09.09.2016 14:25 27,2 C 25,1 C 25,0 C 32,1 C 32,1 C 4,9 C 57 % 66 % 100 % 1015,1 hPa 0,0 l/m 1,8 km/h (1 Bft) S 180 5 min 17,9 C 32,1 C 2,6 km/h (1 Bft)
09.09.2016 14:30 27,3 C 25,2 C 25,1 C 32,3 C 32,3 C 5,0 C 57 % 67 % 100 % 1015,1 hPa 0,0 l/m 1,3 km/h (1 Bft) SW 225 5 min 18,0 C 32,3 C 0,0 km/h (0 Bft)
09.09.2016 14:35 27,7 C 25,2 C 25,3 C 32,8 C 32,8 C 5,1 C 57 % 67 % 100 % 1015,1 hPa 0,0 l/m 0,8 km/h (0 Bft) S 180 5 min 18,4 C 32,8 C 3,4 km/h (1 Bft)
09.09.2016 14:40 27,6 C 25,2 C 25,5 C 33,0 C 33,0 C 5,4 C 56 % 65 % 100 % 1015,1 hPa 0,0 l/m 1,1 km/h (1 Bft) O-NO 67 5 min 18,0 C 33,0 C 4,8 km/h (1 Bft)
09.09.2016 14:45 27,2 C 25,2 C 25,6 C 33,1 C 33,1 C 5,9 C 57 % 65 % 100 % 1015,1 hPa 0,0 l/m 1,1 km/h (1 Bft) W-SW 247 5 min 17,9 C 33,1 C 0,0 km/h (0 Bft)
09.09.2016 14:50 27,7 C 25,2 C 25,7 C 33,6 C 33,6 C 5,9 C 57 % 66 % 100 % 1015,1 hPa 0,0 l/m 1,1 km/h (1 Bft) SW 225 5 min 18,4 C 33,6 C 1,8 km/h (1 Bft)
09.09.2016 14:55 28,1 C 25,1 C 25,8 C 34,3 C 34,3 C 6,2 C 56 % 65 % 100 % 1015,1 hPa 0,0 l/m 0,6 km/h (0 Bft) W-NW 292 5 min 18,5 C 34,3 C 0,0 km/h (0 Bft)
09.09.2016 15:00 28,1 C 25,1 C 25,9 C 34,8 C 34,8 C 6,7 C 56 % 64 % 100 % 1015,1 hPa 0,0 l/m 0,8 km/h (0 Bft) O-NO 67 5 min 18,5 C 34,8 C 4,5 km/h (1 Bft)
09.09.2016 15:05 27,5 C 25,2 C 25,7 C 34,2 C 34,2 C 6,7 C 56 % 65 % 100 % 1015,1 hPa 0,0 l/m 1,0 km/h (0 Bft) N 360 5 min 17,9 C 34,2 C 0,0 km/h (0 Bft)
09.09.2016 15:10 27,5 C 25,2 C 25,7 C 34,0 C 34,0 C 6,5 C 57 % 65 % 100 % 1015,1 hPa 0,0 l/m 1,6 km/h (1 Bft) O-NO 67 5 min 18,2 C 34,0 C 1,6 km/h (1 Bft)
09.09.2016 15:15 27,1 C 25,2 C 25,5 C 32,1 C 32,1 C 5,0 C 57 % 64 % 100 % 1015,1 hPa 0,0 l/m 1,4 km/h (1 Bft) SW 225 5 min 17,8 C 32,1 C 1,8 km/h (1 Bft)
09.09.2016 15:20 26,9 C 25,2 C 25,4 C 31,6 C 31,6 C 4,7 C 56 % 64 % 100 % 1015,1 hPa 0,0 l/m 2,4 km/h (1 Bft) O-SO 112 5 min 17,4 C 31,6 C 6,4 km/h (2 Bft)
09.09.2016 15:25 26,4 C 25,2 C 25,3 C 30,2 C 30,2 C 3,8 C 58 % 65 % 100 % 1014,9 hPa 0,0 l/m 4,0 km/h (1 Bft) O-NO 67 5 min 17,5 C 30,2 C 4,8 km/h (1 Bft)
09.09.2016 15:30 26,3 C 25,2 C 25,1 C 29,7 C 29,7 C 3,4 C 58 % 64 % 89 % 1014,9 hPa 0,0 l/m 3,5 km/h (1 Bft) O-NO 67 5 min 17,4 C 29,7 C 1,6 km/h (1 Bft)
09.09.2016 15:35 26,1 C 25,2 C 24,8 C 28,7 C 28,7 C 2,6 C 59 % 65 % 68 % 1014,9 hPa 0,0 l/m 1,8 km/h (1 Bft) O-NO 67 0 min 17,4 C 28,7 C 0,0 km/h (0 Bft)
09.09.2016 15:40 26,0 C 25,3 C 24,6 C 28,1 C 28,1 C 2,1 C 59 % 65 % 55 % 1014,9 hPa 0,0 l/m 0,6 km/h (0 Bft) O-NO 67 0 min 17,4 C 28,1 C 0,0 km/h (0 Bft)
09.09.2016 15:45 25,8 C 25,3 C 24,4 C 27,8 C 27,8 C 2,0 C 59 % 66 % 53 % 1014,8 hPa 0,0 l/m 0,2 km/h (0 Bft) SO 135 0 min 17,2 C 27,8 C 0,0 km/h (0 Bft)
09.09.2016 15:50 25,8 C 25,3 C 24,5 C 28,0 C 28,0 C 2,2 C 59 % 65 % 58 % 1014,8 hPa 0,0 l/m 0,0 km/h (0 Bft) SO 135 0 min 17,2 C 28,0 C 0,0 km/h (0 Bft)
09.09.2016 15:55 25,7 C 25,3 C 24,5 C 28,1 C 28,1 C 2,4 C 59 % 66 % 63 % 1014,8 hPa 0,0 l/m 0,0 km/h (0 Bft) O 90 0 min 17,1 C 28,1 C 0,0 km/h (0 Bft)
09.09.2016 16:00 25,6 C 25,4 C 24,4 C 28,1 C 28,1 C 2,5 C 58 % 66 % 66 % 1014,8 hPa 0,0 l/m 0,5 km/h (0 Bft) N-NW 337 0 min 16,7 C 28,1 C 2,6 km/h (1 Bft)
09.09.2016 16:05 25,8 C 25,4 C 24,8 C 29,6 C 29,6 C 3,8 C 59 % 65 % 100 % 1014,7 hPa 0,0 l/m 1,0 km/h (0 Bft) O 90 5 min 17,2 C 29,6 C 2,3 km/h (1 Bft)
09.09.2016 16:12 25,9 C 25,4 C 24,9 C 30,3 C 30,3 C 4,4 C 59 % 65 % 100 % 1014,7 hPa 0,0 l/m 1,1 km/h (1 Bft) N 0 7 min 17,3 C 30,3 C 2,3 km/h (1 Bft)
09.09.2016 16:20 26,0 C 25,4 C 24,9 C 30,3 C 30,3 C 4,3 C 59 % 66 % 100 % 1014,7 hPa 0,0 l/m 0,6 km/h (0 Bft) S 180 8 min 17,4 C 30,3 C 0,0 km/h (0 Bft)
09.09.2016 16:25 26,0 C 25,4 C 24,8 C 30,2 C 30,2 C 4,2 C 58 % 64 % 100 % 1014,3 hPa 0,0 l/m 0,6 km/h (0 Bft) SO 135 5 min 17,1 C 30,2 C 1,6 km/h (1 Bft)
09.09.2016 16:30 26,1 C 25,4 C 24,8 C 29,8 C 29,8 C 3,7 C 58 % 64 % 97 % 1014,3 hPa 0,0 l/m 1,0 km/h (0 Bft) NW 315 5 min 17,2 C 29,8 C 1,9 km/h (1 Bft)
09.09.2016 16:35 26,0 C 25,4 C 24,5 C 28,6 C 28,6 C 2,6 C 58 % 65 % 68 % 1014,3 hPa 0,0 l/m 0,8 km/h (0 Bft) O-SO 112 0 min 17,1 C 28,6 C 0,0 km/h (0 Bft)
09.09.2016 16:40 25,9 C 25,4 C 24,4 C 27,9 C 27,9 C 2,0 C 58 % 66 % 53 % 1014,3 hPa 0,0 l/m 0,3 km/h (0 Bft) O-NO 67 0 min 17,0 C 27,9 C 0,0 km/h (0 Bft)
09.09.2016 16:45 25,6 C 25,5 C 24,2 C 27,2 C 27,2 C 1,6 C 58 % 66 % 42 % 1014,3 hPa 0,0 l/m 0,0 km/h (0 Bft) SO 135 0 min 16,7 C 27,2 C 0,0 km/h (0 Bft)
09.09.2016 16:50 25,7 C 25,5 C 24,0 C 26,9 C 26,9 C 1,2 C 58 % 66 % 32 % 1014,3 hPa 0,0 l/m 0,0 km/h (0 Bft) SO 135 0 min 16,8 C 26,9 C 0,0 km/h (0 Bft)
09.09.2016 16:55 25,5 C 25,5 C 23,9 C 26,7 C 26,7 C 1,2 C 59 % 67 % 32 % 1014,3 hPa 0,0 l/m 0,0 km/h (0 Bft) O-NO 67 0 min 16,9 C 26,7 C 0,0 km/h (0 Bft)
09.09.2016 17:00 25,5 C 25,5 C 23,7 C 26,5 C 26,5 C 1,0 C 60 % 68 % 26 % 1014,3 hPa 0,0 l/m 0,2 km/h (0 Bft) N-NW 337 0 min 17,2 C 26,5 C 3,4 km/h (1 Bft)
09.09.2016 17:05 25,3 C 25,5 C 23,7 C 26,3 C 26,3 C 1,0 C 60 % 68 % 26 % 1013,8 hPa 0,0 l/m 0,2 km/h (0 Bft) NO 45 0 min 17,0 C 26,3 C 0,0 km/h (0 Bft)
09.09.2016 17:10 25,2 C 25,5 C 23,9 C 26,3 C 26,3 C 1,1 C 60 % 69 % 29 % 1013,8 hPa 0,0 l/m 0,2 km/h (0 Bft) NO 45 0 min 16,9 C 26,3 C 0,0 km/h (0 Bft)
09.09.2016 17:15 25,3 C 25,5 C 24,0 C 27,4 C 27,4 C 2,1 C 60 % 69 % 55 % 1013,8 hPa 0,0 l/m 0,0 km/h (0 Bft) N-NO 22 0 min 17,0 C 27,4 C 0,0 km/h (0 Bft)
09.09.2016 17:20 25,3 C 25,5 C 24,3 C 28,0 C 28,0 C 2,7 C 60 % 68 % 71 % 1013,8 hPa 0,0 l/m 0,2 km/h (0 Bft) S-SO 157 0 min 17,0 C 28,0 C 0,0 km/h (0 Bft)
09.09.2016 17:25 25,3 C 25,5 C 24,2 C 28,0 C 28,0 C 2,7 C 59 % 65 % 71 % 1014,7 hPa 0,0 l/m 0,3 km/h (0 Bft) W-SW 247 0 min 16,7 C 28,0 C 0,0 km/h (0 Bft)
09.09.2016 17:30 25,3 C 25,5 C 24,2 C 27,6 C 27,6 C 2,3 C 59 % 66 % 61 % 1014,7 hPa 0,0 l/m 0,2 km/h (0 Bft) S 180 0 min 16,7 C 27,6 C 0,0 km/h (0 Bft)
09.09.2016 17:35 25,3 C 25,5 C 23,9 C 27,1 C 27,1 C 1,8 C 59 % 67 % 47 % 1014,7 hPa 0,0 l/m 0,0 km/h (0 Bft) S-SO 157 0 min 16,7 C 27,1 C 0,0 km/h (0 Bft)
09.09.2016 17:40 25,2 C 25,6 C 23,9 C 26,7 C 26,7 C 1,5 C 60 % 68 % 39 % 1014,7 hPa 0,0 l/m 0,0 km/h (0 Bft) N-NO 22 0 min 16,9 C 26,7 C 0,0 km/h (0 Bft)
09.09.2016 17:45 25,2 C 25,6 C 23,8 C 26,4 C 26,4 C 1,2 C 60 % 68 % 32 % 1014,6 hPa 0,0 l/m 0,0 km/h (0 Bft) O-NO 67 0 min 16,9 C 26,4 C 0,0 km/h (0 Bft)
09.09.2016 17:50 25,1 C 25,6 C 23,8 C 26,3 C 26,3 C 1,2 C 60 % 68 % 32 % 1014,6 hPa 0,0 l/m 0,0 km/h (0 Bft) O-NO 67 0 min 16,8 C 26,3 C 0,0 km/h (0 Bft)
09.09.2016 17:55 25,0 C 25,6 C 23,7 C 26,2 C 26,2 C 1,2 C 60 % 68 % 32 % 1014,6 hPa 0,0 l/m 0,2 km/h (0 Bft) N-NO 22 0 min 16,7 C 26,2 C 1,9 km/h (1 Bft)
09.09.2016 18:00 25,0 C 25,6 C 23,8 C 26,0 C 26,0 C 1,0 C 61 % 68 % 26 % 1014,6 hPa 0,0 l/m 0,3 km/h (0 Bft) O-NO 67 0 min 16,9 C 26,0 C 0,0 km/h (0 Bft)
09.09.2016 18:05 25,1 C 25,6 C 23,6 C 25,8 C 25,8 C 0,7 C 61 % 69 % 18 % 1014,7 hPa 0,0 l/m 0,2 km/h (0 Bft) SO 135 0 min 17,0 C 25,8 C 0,0 km/h (0 Bft)
09.09.2016 18:12 24,8 C 25,6 C 23,3 C 25,4 C 25,4 C 0,6 C 62 % 71 % 16 % 1014,7 hPa 0,0 l/m 0,0 km/h (0 Bft) N 0 0 min 17,0 C 25,4 C 0,0 km/h (0 Bft)
09.09.2016 18:20 24,7 C 25,6 C 23,2 C 25,1 C 25,1 C 0,4 C 63 % 71 % 11 % 1014,7 hPa 0,0 l/m 0,0 km/h (0 Bft) O-NO 67 0 min 17,2 C 25,1 C 0,0 km/h (0 Bft)
09.09.2016 18:25 24,6 C 25,6 C 23,1 C 24,8 C 24,8 C 0,2 C 63 % 72 % 5 % 1014,2 hPa 0,0 l/m 0,0 km/h (0 Bft) N-NO 22 0 min 17,1 C 24,8 C 0,0 km/h (0 Bft)
09.09.2016 18:30 24,4 C 25,6 C 22,9 C 24,6 C 24,6 C 0,2 C 63 % 72 % 5 % 1014,2 hPa 0,0 l/m 0,0 km/h (0 Bft) NO 45 0 min 16,9 C 24,6 C 0,0 km/h (0 Bft)
09.09.2016 18:35 24,2 C 25,6 C 22,7 C 24,3 C 24,3 C 0,1 C 63 % 73 % 3 % 1014,2 hPa 0,0 l/m 0,5 km/h (0 Bft) O-NO 67 0 min 16,7 C 24,3 C 0,0 km/h (0 Bft)
09.09.2016 18:40 24,2 C 25,6 C 22,5 C 24,2 C 24,2 C 0,0 C 64 % 73 % 0 % 1014,2 hPa 0,0 l/m 0,5 km/h (0 Bft) N 360 0 min 16,9 C 24,2 C 0,0 km/h (0 Bft)
09.09.2016 18:45 24,0 C 25,6 C 22,4 C 24,1 C 24,1 C 0,1 C 64 % 73 % 3 % 1014,7 hPa 0,0 l/m 0,0 km/h (0 Bft) NO 45 0 min 16,8 C 24,1 C 0,0 km/h (0 Bft)
09.09.2016 18:50 24,1 C 25,6 C 22,4 C 24,0 C 23,9 C 0,0 C 65 % 74 % 0 % 1014,7 hPa 0,0 l/m 0,0 km/h (0 Bft) N-NO 22 0 min 17,1 C 23,9 C 0,0 km/h (0 Bft)
09.09.2016 18:55 23,9 C 25,6 C 22,4 C 23,9 C 23,8 C 0,0 C 65 % 74 % 0 % 1014,7 hPa 0,0 l/m 0,0 km/h (0 Bft) N-NO 22 0 min 16,9 C 23,8 C 0,0 km/h (0 Bft)
09.09.2016 19:00 23,7 C 25,7 C 22,3 C 23,7 C 23,6 C 0,0 C 66 % 74 % 0 % 1014,7 hPa 0,0 l/m 0,0 km/h (0 Bft) N-NO 22 0 min 17,0 C 23,6 C 0,0 km/h (0 Bft)
09.09.2016 19:05 23,5 C 25,7 C 22,0 C 23,4 C 23,3 C 0,0 C 66 % 75 % 0 % 1015,0 hPa 0,0 l/m 0,0 km/h (0 Bft) N-NO 22 0 min 16,8 C 23,3 C 0,0 km/h (0 Bft)
09.09.2016 19:10 23,5 C 25,7 C 21,9 C 23,3 C 23,0 C 0,0 C 66 % 75 % 0 % 1015,0 hPa 0,0 l/m 0,0 km/h (0 Bft) N-NO 22 0 min 16,8 C 23,0 C 0,0 km/h (0 Bft)
09.09.2016 19:15 23,3 C 25,7 C 21,7 C 23,1 C 22,7 C 0,0 C 67 % 76 % 0 % 1015,0 hPa 0,0 l/m 0,0 km/h (0 Bft) N-NO 22 0 min 16,8 C 22,7 C 0,0 km/h (0 Bft)
09.09.2016 19:20 23,0 C 25,7 C 21,6 C 22,8 C 22,4 C 0,0 C 67 % 76 % 0 % 1015,0 hPa 0,0 l/m 0,0 km/h (0 Bft) N-NO 22 0 min 16,5 C 22,4 C 0,0 km/h (0 Bft)
09.09.2016 19:25 22,9 C 25,8 C 21,5 C 22,6 C 22,0 C 0,0 C 68 % 76 % 0 % 1014,9 hPa 0,0 l/m 0,0 km/h (0 Bft) N-NO 22 0 min 16,7 C 22,0 C 0,0 km/h (0 Bft)
09.09.2016 19:30 22,6 C 25,8 C 21,3 C 22,3 C 21,7 C 0,0 C 68 % 77 % 0 % 1014,9 hPa 0,0 l/m 0,0 km/h (0 Bft) N-NO 22 0 min 16,4 C 21,7 C 0,0 km/h (0 Bft)
09.09.2016 19:35 22,5 C 25,8 C 20,9 C 22,1 C 21,3 C 0,0 C 70 % 78 % 0 % 1014,9 hPa 0,0 l/m 0,0 km/h (0 Bft) N-NO 22 0 min 16,7 C 21,3 C 0,0 km/h (0 Bft)
09.09.2016 19:40 22,3 C 25,8 C 20,7 C 21,9 C 21,0 C 0,0 C 70 % 78 % 0 % 1014,9 hPa 0,0 l/m 0,0 km/h (0 Bft) N-NO 22 0 min 16,6 C 21,0 C 0,0 km/h (0 Bft)
09.09.2016 19:50 21,6 C 25,8 C 20,3 C 21,2 C 20,4 C 0,0 C 72 % 79 % 0 % 1014,9 hPa 0,0 l/m 0,0 km/h (0 Bft) N-NO 22 0 min 16,3 C 20,4 C 0,0 km/h (0 Bft)
09.09.2016 19:55 21,5 C 25,8 C 20,2 C 21,0 C 20,0 C 0,0 C 72 % 80 % 0 % 1014,9 hPa 0,0 l/m 0,0 km/h (0 Bft) N-NO 22 0 min 16,2 C 20,0 C 0,0 km/h (0 Bft)
09.09.2016 20:00 21,2 C 25,9 C 20,0 C 20,7 C 19,7 C 0,0 C 72 % 80 % 0 % 1014,9 hPa 0,0 l/m 0,0 km/h (0 Bft) N-NO 22 0 min 15,9 C 19,7 C 0,0 km/h (0 Bft)
09.09.2016 20:05 20,9 C 25,9 C 19,9 C 20,4 C 19,4 C 0,0 C 73 % 81 % 0 % 1015,1 hPa 0,0 l/m 0,0 km/h (0 Bft) N-NO 22 0 min 15,9 C 19,4 C 0,0 km/h (0 Bft)
09.09.2016 20:12 20,4 C 25,9 C 19,5 C 19,9 C 18,9 C 0,0 C 74 % 81 % 0 % 1015,1 hPa 0,0 l/m 0,0 km/h (0 Bft) N 0 0 min 15,6 C 18,9 C 0,0 km/h (0 Bft)
09.09.2016 20:20 20,2 C 25,9 C 19,3 C 19,7 C 18,8 C 0,0 C 75 % 82 % 0 % 1015,1 hPa 0,0 l/m 0,0 km/h (0 Bft) N-NO 22 0 min 15,6 C 18,8 C 0,0 km/h (0 Bft)
09.09.2016 20:25 20,0 C 25,9 C 19,1 C 19,5 C 18,5 C 0,0 C 75 % 83 % 0 % 1015,1 hPa 0,0 l/m 0,0 km/h (0 Bft) N-NO 22 0 min 15,4 C 18,5 C 0,0 km/h (0 Bft)
09.09.2016 20:30 19,8 C 26,0 C 19,1 C 19,3 C 18,4 C 0,0 C 76 % 83 % 0 % 1015,1 hPa 0,0 l/m 0,0 km/h (0 Bft) N-NO 22 0 min 15,4 C 18,4 C 0,0 km/h (0 Bft)
09.09.2016 20:35 19,4 C 26,0 C 18,9 C 19,0 C 18,2 C 0,0 C 77 % 83 % 0 % 1015,1 hPa 0,0 l/m 0,0 km/h (0 Bft) N-NO 22 0 min 15,3 C 18,2 C 0,0 km/h (0 Bft)
09.09.2016 20:40 19,2 C 26,0 C 18,8 C 18,9 C 18,2 C 0,0 C 77 % 83 % 0 % 1015,1 hPa 0,0 l/m 0,0 km/h (0 Bft) N-NO 22 0 min 15,1 C 18,2 C 0,0 km/h (0 Bft)
09.09.2016 20:45 19,0 C 26,1 C 18,7 C 18,7 C 18,0 C 0,0 C 77 % 84 % 0 % 1015,4 hPa 0,0 l/m 0,0 km/h (0 Bft) N-NO 22 0 min 14,9 C 18,0 C 0,0 km/h (0 Bft)
09.09.2016 20:50 18,8 C 26,1 C 18,6 C 18,5 C 17,8 C 0,0 C 78 % 84 % 0 % 1015,4 hPa 0,0 l/m 0,0 km/h (0 Bft) N-NO 22 0 min 14,9 C 17,8 C 0,0 km/h (0 Bft)
09.09.2016 20:55 18,7 C 26,1 C 18,4 C 18,4 C 17,7 C 0,0 C 78 % 84 % 0 % 1015,4 hPa 0,0 l/m 0,0 km/h (0 Bft) N-NO 22 0 min 14,8 C 17,7 C 0,0 km/h (0 Bft)
09.09.2016 21:00 18,4 C 26,1 C 18,4 C 18,1 C 17,6 C 0,0 C 79 % 85 % 0 % 1015,4 hPa 0,0 l/m 0,0 km/h (0 Bft) N-NO 22 0 min 14,7 C 17,6 C 0,0 km/h (0 Bft)
09.09.2016 21:05 18,1 C 26,1 C 18,3 C 17,9 C 17,5 C 0,0 C 79 % 85 % 0 % 1015,3 hPa 0,0 l/m 0,0 km/h (0 Bft) N-NO 22 0 min 14,4 C 17,5 C 0,0 km/h (0 Bft)
09.09.2016 21:10 18,0 C 26,1 C 18,2 C 17,8 C 17,4 C 0,0 C 79 % 85 % 0 % 1015,3 hPa 0,0 l/m 0,2 km/h (0 Bft) N-NW 337 0 min 14,3 C 17,4 C 2,3 km/h (1 Bft)
09.09.2016 21:15 17,7 C 26,1 C 18,3 C 17,6 C 17,3 C 0,0 C 80 % 86 % 0 % 1015,3 hPa 0,0 l/m 0,2 km/h (0 Bft) N 360 0 min 14,2 C 17,3 C 0,0 km/h (0 Bft)
09.09.2016 21:20 17,7 C 26,1 C 18,2 C 17,6 C 17,3 C 0,0 C 80 % 86 % 0 % 1015,3 hPa 0,0 l/m 0,2 km/h (0 Bft) N 360 0 min 14,2 C 17,3 C 0,0 km/h (0 Bft)
09.09.2016 21:25 17,4 C 26,2 C 18,0 C 17,3 C 17,1 C 0,0 C 80 % 86 % 0 % 1015,6 hPa 0,0 l/m 0,0 km/h (0 Bft) N 360 0 min 13,9 C 17,1 C 0,0 km/h (0 Bft)
09.09.2016 21:30 17,3 C 26,2 C 18,0 C 17,2 C 16,9 C 0,0 C 80 % 86 % 0 % 1015,6 hPa 0,0 l/m 0,0 km/h (0 Bft) N 360 0 min 13,8 C 16,9 C 0,0 km/h (0 Bft)
09.09.2016 21:35 17,1 C 26,2 C 17,9 C 17,0 C 16,7 C 0,0 C 81 % 87 % 0 % 1015,6 hPa 0,0 l/m 0,2 km/h (0 Bft) O-NO 67 0 min 13,8 C 16,7 C 1,9 km/h (1 Bft)
09.09.2016 21:40 17,0 C 26,2 C 17,7 C 16,9 C 16,7 C 0,0 C 81 % 87 % 0 % 1015,6 hPa 0,0 l/m 0,2 km/h (0 Bft) O 90 0 min 13,7 C 16,7 C 0,0 km/h (0 Bft)
09.09.2016 21:45 16,8 C 26,1 C 17,7 C 16,8 C 16,7 C 0,0 C 82 % 87 % 0 % 1015,6 hPa 0,0 l/m 0,2 km/h (0 Bft) O 90 0 min 13,7 C 16,7 C 0,0 km/h (0 Bft)
09.09.2016 21:50 16,8 C 26,1 C 17,6 C 16,7 C 16,6 C 0,0 C 82 % 87 % 0 % 1015,6 hPa 0,0 l/m 0,0 km/h (0 Bft) W-NW 292 0 min 13,7 C 16,6 C 0,0 km/h (0 Bft)
09.09.2016 21:55 16,7 C 26,1 C 17,6 C 16,6 C 16,3 C 0,0 C 82 % 87 % 0 % 1015,6 hPa 0,0 l/m 0,0 km/h (0 Bft) W 270 0 min 13,6 C 16,3 C 0,0 km/h (0 Bft)
09.09.2016 22:00 16,5 C 26,1 C 17,4 C 16,4 C 16,2 C 0,0 C 82 % 87 % 0 % 1015,6 hPa 0,0 l/m 0,0 km/h (0 Bft) W 270 0 min 13,4 C 16,2 C 0,0 km/h (0 Bft)
09.09.2016 22:05 16,4 C 26,2 C 17,3 C 16,3 C 16,1 C 0,0 C 82 % 87 % 0 % 1015,8 hPa 0,0 l/m 0,0 km/h (0 Bft) O-NO 67 0 min 13,3 C 16,1 C 0,0 km/h (0 Bft)
09.09.2016 22:12 16,2 C 26,2 C 17,2 C 16,1 C 16,0 C 0,0 C 83 % 88 % 0 % 1015,8 hPa 0,0 l/m 0,0 km/h (0 Bft) N 0 0 min 13,3 C 16,0 C 0,0 km/h (0 Bft)
09.09.2016 22:20 16,1 C 26,2 C 17,2 C 16,1 C 16,0 C 0,0 C 83 % 88 % 0 % 1015,8 hPa 0,0 l/m 0,0 km/h (0 Bft) O-NO 67 0 min 13,2 C 16,0 C 0,0 km/h (0 Bft)
09.09.2016 22:25 16,0 C 26,2 C 17,1 C 16,0 C 16,0 C 0,0 C 83 % 88 % 0 % 1015,6 hPa 0,0 l/m 0,0 km/h (0 Bft) O-NO 67 0 min 13,1 C 16,0 C 0,0 km/h (0 Bft)
09.09.2016 22:30 16,0 C 26,2 C 17,1 C 16,0 C 16,0 C 0,0 C 83 % 88 % 0 % 1015,6 hPa 0,0 l/m 0,0 km/h (0 Bft) N 360 0 min 13,1 C 16,0 C 0,0 km/h (0 Bft)
09.09.2016 22:35 15,9 C 26,2 C 16,9 C 15,9 C 15,9 C 0,0 C 83 % 88 % 0 % 1015,6 hPa 0,0 l/m 0,0 km/h (0 Bft) N 360 0 min 13,0 C 15,9 C 0,0 km/h (0 Bft)
09.09.2016 22:40 15,8 C 26,2 C 16,9 C 15,8 C 15,8 C 0,0 C 83 % 88 % 0 % 1015,6 hPa 0,0 l/m 0,0 km/h (0 Bft) N-NW 337 0 min 12,9 C 15,8 C 0,0 km/h (0 Bft)
09.09.2016 22:45 15,6 C 26,1 C 16,8 C 15,7 C 15,7 C 0,1 C 83 % 88 % 0 % 1015,6 hPa 0,0 l/m 0,0 km/h (0 Bft) SW 225 0 min 12,7 C 15,7 C 0,0 km/h (0 Bft)
09.09.2016 22:50 15,6 C 26,2 C 16,8 C 15,6 C 15,5 C 0,0 C 83 % 88 % 0 % 1015,6 hPa 0,0 l/m 0,0 km/h (0 Bft) SW 225 0 min 12,7 C 15,5 C 0,0 km/h (0 Bft)
09.09.2016 22:55 15,5 C 26,2 C 16,7 C 15,5 C 15,5 C 0,0 C 84 % 88 % 0 % 1015,6 hPa 0,0 l/m 0,0 km/h (0 Bft) SW 225 0 min 12,8 C 15,5 C 0,0 km/h (0 Bft)
09.09.2016 23:00 15,4 C 26,2 C 16,7 C 15,4 C 15,4 C 0,0 C 84 % 88 % 0 % 1015,6 hPa 0,0 l/m 0,0 km/h (0 Bft) SW 225 0 min 12,7 C 15,4 C 0,0 km/h (0 Bft)
09.09.2016 23:05 15,2 C 26,1 C 16,5 C 15,3 C 15,3 C 0,1 C 84 % 89 % 0 % 1015,7 hPa 0,0 l/m 0,0 km/h (0 Bft) SW 225 0 min 12,5 C 15,3 C 0,0 km/h (0 Bft)
09.09.2016 23:10 15,2 C 26,2 C 16,5 C 15,3 C 15,3 C 0,1 C 84 % 89 % 0 % 1015,7 hPa 0,0 l/m 0,0 km/h (0 Bft) SW 225 0 min 12,5 C 15,3 C 0,0 km/h (0 Bft)
09.09.2016 23:15 15,1 C 26,2 C 16,4 C 15,3 C 15,3 C 0,2 C 84 % 88 % 0 % 1015,7 hPa 0,0 l/m 0,0 km/h (0 Bft) SW 225 0 min 12,4 C 15,3 C 0,0 km/h (0 Bft)
09.09.2016 23:20 15,1 C 26,2 C 16,4 C 15,3 C 15,3 C 0,2 C 84 % 88 % 0 % 1015,7 hPa 0,0 l/m 0,0 km/h (0 Bft) SW 225 0 min 12,4 C 15,3 C 0,0 km/h (0 Bft)
09.09.2016 23:25 15,1 C 26,2 C 16,4 C 15,3 C 15,3 C 0,2 C 85 % 89 % 0 % 1015,8 hPa 0,0 l/m 0,0 km/h (0 Bft) O-NO 67 0 min 12,6 C 15,3 C 0,0 km/h (0 Bft)
09.09.2016 23:30 15,1 C 26,2 C 16,3 C 15,3 C 15,3 C 0,2 C 85 % 89 % 0 % 1015,8 hPa 0,0 l/m 0,0 km/h (0 Bft) NW 315 0 min 12,6 C 15,3 C 0,0 km/h (0 Bft)
09.09.2016 23:35 15,0 C 26,2 C 16,2 C 15,1 C 15,1 C 0,1 C 85 % 89 % 0 % 1015,8 hPa 0,0 l/m 0,0 km/h (0 Bft) W-SW 247 0 min 12,5 C 15,1 C 0,0 km/h (0 Bft)
09.09.2016 23:40 14,9 C 26,2 C 16,3 C 15,1 C 15,1 C 0,2 C 85 % 89 % 0 % 1015,8 hPa 0,0 l/m 0,0 km/h (0 Bft) W-SW 247 0 min 12,4 C 15,1 C 0,0 km/h (0 Bft)
09.09.2016 23:45 14,8 C 26,2 C 16,1 C 15,0 C 15,0 C 0,2 C 85 % 89 % 0 % 1015,8 hPa 0,0 l/m 0,0 km/h (0 Bft) NW 315 0 min 12,3 C 15,0 C 0,0 km/h (0 Bft)
09.09.2016 23:50 14,8 C 26,2 C 16,1 C 15,0 C 15,0 C 0,2 C 85 % 89 % 0 % 1015,8 hPa 0,0 l/m 0,0 km/h (0 Bft) NW 315 0 min 12,3 C 15,0 C 0,0 km/h (0 Bft)
09.09.2016 23:55 14,6 C 26,2 C 16,0 C 14,9 C 14,9 C 0,3 C 85 % 89 % 0 % 1015,8 hPa 0,0 l/m 0,0 km/h (0 Bft) NW 315 0 min 12,1 C 14,9 C 0,0 km/h (0 Bft)
_ Min-Zeit 06:05 09:50 06:05 06:05 06:05 18:40 14:40 14:00 00:00 00:25 - 00:00 - - - 06:05 06:05 00:00
Minimum _ 13,0 C 24,8 C 14,5 C 13,4 C 13,4 C 0,0 C 56 % 64 % 0 % 1011,0 hPa - 0,0 km/h (0 Bft) - - - 11,1 C 13,4 C 0,0 km/h (0 Bft)
_ Max-Zeit 14:55 21:25 15:00 15:00 15:00 15:05 08:50 02:45 08:25 11:05 00:00 15:25 - - 10:20 14:55 15:00 12:55
Maximum _ 28,1 C 26,2 C 25,9 C 34,8 C 34,8 C 6,7 C 92 % 90 % 100 % 1016,1 hPa 0,0 l/m 4,0 km/h
O-NO (1 Bft)
- - 8 min 18,5 C 34,8 C 9,2 km/h
W-SW (2 Bft)
Durchschnitt _ 19,1 C 25,5 C 19,2 C 20,8 C 20,7 C 1,8 C 77 % 82 % 37 % 1014,0 hPa #0,0 l/m 0,4 km/h (0 Bft) SW - #7:03 h 14,7 C 20,7 C 0,6 km/h (0 Bft)
2016 www.wetterstation-wechselburg.de